Aérodrome :
LOGIN :

S'inscrire | Disclaimer

   EN    FR    IT 

 










Légende :    VFR   VFR Marginal   IFR   IFR Intensif   IFR Très Intensif
Visi : 
Plafond : 
>= 8 km
>= 3000ft
5 à 8 km
1000 à 3000 ft
1500m à 5 km
500 à 1000 ft
800 à 1500m
200 à 500 ft
< 800m
< 200 ft
Symboles :   Orages  Brouillard  Fortes neiges  Fortes précipitations  Vent > 20 kt
SIGMETs :   Divers  Orages  Givrage  Turbulence  Onde Orograph.  Cendres Volcan.






- Altitude de l'aérodrome : 74 ft
- Code IATA : EIN


EHEH - Eindhoven

DERNIER METAR :
  • 091825Z AUTO 21003KT 200V260 9999 OVC013 M00/M02 Q1007 GRN BECMG 4000 BR SCT012

METARs EXPIRÉS :
  • 091755Z AUTO 20003KT 160V240 9999 BKN012 OVC014 M00/M02 Q1007 GRN BECMG 4000 BR SCT012
  • 091725Z AUTO 20004KT 190V250 9999 OVC014 M00/M02 Q1007 GRN BECMG 4000 BR SCT012
  • 091655Z AUTO 15004KT 120V190 9999 OVC013 00/M02 Q1006 GRN BECMG 4000 BR SCT012
  • 091633Z AUTO 17003KT 110V210 9999 OVC014 00/M03 Q1006 GRN BECMG 4000 BR SCT012
  • 091601Z AUTO 14003KT 070V210 9999 OVC015 01/M02 Q1006 WHT BECMG 4000 BR SCT012
  • 091555Z AUTO VRB03KT 9999 BKN014 OVC017 01/M02 Q1006 GRN BECMG 4000 BR SCT012

TAF TAF EHEH
Valide du 09 à 12h jusqu'au 10 à 18h UTC


091131Z 0912/1018 17004KT 9000 SCT010 BKN016
BECMG 0922/0924 4000 BR BKN008
PROB40
TEMPO 0923/1006 0600 FZFG FEW008
PROB40 1006/1011 0800 FZFG BKN001
BECMG 1011/1013 BKN004 BKN006
PROB40
TEMPO 1011/1018 1500 BKN002



MET'MAP, la Météo Aéronautique d'un coup d'oeil ! - Copyright ORBIFLY Décembre 2007 - Disclaimer

ORBIFLY MET'MAP TEAM :

Programmation & Développement : Alexandra Zaïnal
Sur une idée originale de : Baudouin d'Aumeries
Soutien technique & logistique : Manuel Goepfert
Assistance : Marc-Olivier Méhu




SOURCES & CREDITS :

   NOAA